createdAt,value
2023-03-15T00:03:24.818Z,0.6
2023-03-15T00:13:25.493Z,0.7
2023-03-15T00:23:26.180Z,0.5
2023-03-15T00:33:26.886Z,0.5
2023-03-15T00:43:27.668Z,1.5
2023-03-15T00:53:28.380Z,0.9
2023-03-15T01:03:29.087Z,0.6
2023-03-15T01:13:29.700Z,0.7
2023-03-15T01:23:30.388Z,0.8
2023-03-15T01:33:30.964Z,1
2023-03-15T01:43:31.606Z,1
2023-03-15T01:53:32.224Z,1.2
2023-03-15T02:03:32.778Z,0.9
2023-03-15T02:13:33.381Z,1.1
2023-03-15T02:23:33.902Z,0.8
2023-03-15T02:33:34.415Z,0.9
2023-03-15T02:43:34.909Z,0.8
2023-03-15T02:53:35.497Z,0.9
2023-03-15T03:03:36.002Z,1
2023-03-15T03:13:36.527Z,1
2023-03-15T03:23:37.154Z,0.8
2023-03-15T03:33:37.489Z,0.9
2023-03-15T03:43:37.970Z,1
2023-03-15T03:53:38.497Z,1.1
2023-03-15T04:03:38.826Z,1
2023-03-15T04:13:39.249Z,1.1
2023-03-15T04:23:39.629Z,1.1
2023-03-15T04:33:40.027Z,1
2023-03-15T04:43:40.460Z,1.1
2023-03-15T04:53:40.866Z,1
2023-03-15T05:03:41.258Z,1.2
2023-03-15T05:13:41.661Z,1.3
2023-03-15T05:23:42.088Z,1.2
2023-03-15T05:33:42.449Z,1.4
2023-03-15T05:43:42.836Z,1.2
2023-03-15T05:53:45.258Z,1.1
2023-03-15T06:03:43.631Z,1.2
2023-03-15T06:13:43.866Z,1.2
2023-03-15T06:23:44.194Z,1.2
2023-03-15T06:33:44.488Z,1.3
2023-03-15T06:43:44.864Z,1.3
2023-03-15T06:53:45.338Z,1.3
2023-03-15T07:03:45.705Z,1.5
2023-03-15T07:13:46.053Z,1.4
2023-03-15T07:23:46.442Z,1.6
2023-03-15T07:33:46.787Z,1.3
2023-03-15T07:43:47.212Z,1.4
2023-03-15T07:53:47.556Z,1.2
2023-03-15T08:03:48.076Z,1.5
2023-03-15T08:13:48.249Z,1.5
2023-03-15T08:23:48.548Z,1.5
2023-03-15T08:33:48.821Z,1.7
2023-03-15T08:43:49.126Z,1.4
2023-03-15T08:53:49.479Z,1.6
2023-03-15T09:03:49.767Z,1.4
2023-03-15T09:13:50.016Z,1.6
2023-03-15T09:23:50.297Z,1.4
2023-03-15T09:33:50.669Z,1.4
2023-03-15T09:43:50.906Z,1.6
2023-03-15T09:53:51.247Z,1.5
2023-03-15T10:03:51.633Z,1.4
2023-03-15T10:15:16.941Z,1.8
2023-03-15T10:23:52.463Z,1.6
2023-03-15T10:33:52.829Z,2
2023-03-15T10:43:53.163Z,1.7
2023-03-15T10:53:53.313Z,1.7
2023-03-15T11:03:53.583Z,1.7
2023-03-15T11:13:53.866Z,1.7
2023-03-15T11:23:54.296Z,1.7
2023-03-15T11:33:54.804Z,1.7
2023-03-15T11:43:55.104Z,2
2023-03-15T11:53:55.355Z,2
2023-03-15T12:03:55.663Z,1.8
2023-03-15T12:13:55.946Z,2.1
2023-03-15T12:23:56.289Z,1.7
2023-03-15T12:33:56.688Z,2
2023-03-15T12:43:57.028Z,2
2023-03-15T12:53:57.398Z,2.1
2023-03-15T13:03:57.746Z,2.1
2023-03-15T13:13:58.179Z,1.9
2023-03-15T13:23:58.661Z,2.1
2023-03-15T13:33:59.035Z,2
2023-03-15T13:43:59.536Z,1.9
2023-03-15T13:54:00.114Z,1.6
2023-03-15T14:04:00.700Z,1.8
2023-03-15T14:14:01.238Z,1.9
2023-03-15T14:24:01.850Z,1.7
2023-03-15T14:34:02.460Z,1.6
2023-03-15T14:44:03.131Z,1.7
2023-03-15T14:54:03.870Z,1.7
2023-03-15T15:04:04.459Z,1.4
2023-03-15T15:14:05.147Z,1.1
2023-03-15T15:24:05.908Z,1.3
2023-03-15T15:34:06.592Z,1.2
2023-03-15T15:44:07.358Z,1.2
2023-03-15T15:54:08.083Z,1.4
2023-03-15T16:04:08.856Z,1.3
2023-03-15T16:14:09.704Z,1.1
2023-03-15T16:24:10.492Z,1.3
2023-03-15T16:34:11.260Z,1.1
2023-03-15T16:44:12.119Z,1.3
2023-03-15T16:54:19.824Z,1.3
2023-03-15T17:04:13.895Z,1.3
2023-03-15T17:14:14.735Z,1
2023-03-15T17:24:15.664Z,1
2023-03-15T17:34:16.605Z,1.1
2023-03-15T17:44:17.494Z,1.1
2023-03-15T17:54:18.407Z,1
2023-03-15T18:04:19.430Z,0.9
2023-03-15T18:14:20.363Z,1.2
2023-03-15T18:24:21.311Z,1
2023-03-15T18:34:22.315Z,1.4
2023-03-15T18:44:23.292Z,1
2023-03-15T18:54:24.320Z,1
2023-03-15T19:04:25.473Z,0.9
2023-03-15T19:14:26.601Z,1
2023-03-15T19:24:27.675Z,0.9
2023-03-15T19:34:28.815Z,0.7
2023-03-15T19:44:29.960Z,1
2023-03-15T19:54:31.068Z,1
2023-03-15T20:04:32.106Z,0.9
2023-03-15T20:14:33.285Z,0.9
2023-03-15T20:24:34.445Z,0.8
2023-03-15T20:34:35.650Z,0.8
2023-03-15T20:44:36.781Z,0.9
2023-03-15T20:54:37.978Z,0.7
2023-03-15T21:04:39.151Z,0.7
2023-03-15T21:14:40.342Z,0.7
2023-03-15T21:24:54.681Z,0.7
2023-03-15T21:34:42.704Z,0.8
2023-03-15T21:44:43.858Z,0.8
2023-03-15T21:54:44.979Z,0.8
2023-03-15T22:04:46.221Z,0.8
2023-03-15T22:14:49.555Z,0.9
2023-03-15T22:24:48.280Z,0.7
2023-03-15T22:34:49.327Z,0.6
2023-03-15T22:44:50.394Z,0.8
2023-03-15T22:54:51.428Z,0.8
2023-03-15T23:04:52.476Z,0.8
2023-03-15T23:14:53.622Z,0.7
2023-03-15T23:24:54.353Z,1.4
2023-03-15T23:34:55.279Z,0.9
2023-03-15T23:44:56.216Z,0.9
2023-03-15T23:54:57.182Z,0.8
